createdAt,value
2022-11-22T00:00:23.824Z,6.60
2022-11-22T00:01:23.806Z,6.70
2022-11-22T00:02:23.833Z,7.90
2022-11-22T00:03:23.699Z,6.80
2022-11-22T00:04:23.650Z,6.10
2022-11-22T00:05:23.610Z,6.40
2022-11-22T00:06:23.570Z,4.40
2022-11-22T00:07:23.589Z,6.00
2022-11-22T00:08:23.513Z,6.80
2022-11-22T00:09:23.437Z,6.60
2022-11-22T00:10:23.394Z,5.40
2022-11-22T00:11:23.381Z,6.90
2022-11-22T00:12:23.326Z,4.80
2022-11-22T00:13:23.265Z,7.60
2022-11-22T00:14:23.233Z,6.10
2022-11-22T00:15:23.194Z,7.90
2022-11-22T00:16:23.129Z,6.30
2022-11-22T00:17:23.084Z,4.80
2022-11-22T00:18:23.046Z,7.10
2022-11-22T00:19:23.006Z,6.70
2022-11-22T00:20:22.969Z,6.00
2022-11-22T00:21:22.928Z,4.80
2022-11-22T00:22:22.978Z,6.60
2022-11-22T00:23:22.828Z,6.30
2022-11-22T00:24:22.777Z,5.60
2022-11-22T00:25:22.762Z,6.50
2022-11-22T00:26:22.699Z,6.50
2022-11-22T00:27:22.648Z,5.60
2022-11-22T00:28:22.603Z,6.50
2022-11-22T00:29:22.577Z,6.10
2022-11-22T00:30:22.523Z,5.80
2022-11-22T00:31:22.491Z,5.50
2022-11-22T00:32:22.433Z,7.00
2022-11-22T00:33:22.424Z,7.90
2022-11-22T00:34:22.353Z,6.20
2022-11-22T00:35:22.318Z,7.30
2022-11-22T00:36:22.256Z,6.10
2022-11-22T00:37:22.221Z,7.30
2022-11-22T00:38:22.169Z,6.10
2022-11-22T00:39:22.156Z,6.70
2022-11-22T00:40:22.079Z,6.00
2022-11-22T00:41:22.041Z,7.50
2022-11-22T00:42:21.995Z,6.70
2022-11-22T00:43:21.967Z,8.40
2022-11-22T00:44:21.910Z,7.50
2022-11-22T00:45:21.888Z,7.30
2022-11-22T00:46:21.823Z,6.80
2022-11-22T00:47:21.796Z,7.70
2022-11-22T00:48:21.740Z,7.80
2022-11-22T00:49:21.700Z,9.30
2022-11-22T00:50:21.647Z,7.10
2022-11-22T00:51:21.621Z,7.60
2022-11-22T00:52:21.558Z,7.00
2022-11-22T00:53:21.529Z,7.70
2022-11-22T00:54:21.470Z,8.70
2022-11-22T00:55:21.450Z,8.60
2022-11-22T00:56:21.386Z,6.90
2022-11-22T00:57:21.360Z,6.50
2022-11-22T00:58:21.295Z,8.20
2022-11-22T00:59:21.255Z,6.80
2022-11-22T01:00:21.208Z,7.00
2022-11-22T01:01:21.187Z,9.10
2022-11-22T01:02:21.124Z,7.40
2022-11-22T01:03:21.094Z,5.80
2022-11-22T01:04:21.030Z,6.70
2022-11-22T01:05:21.012Z,8.20
2022-11-22T01:06:20.950Z,7.00
2022-11-22T01:07:20.967Z,6.80
2022-11-22T01:08:20.859Z,7.80
2022-11-22T01:09:20.834Z,6.20
2022-11-22T01:10:28.330Z,8.40
2022-11-22T01:11:20.737Z,9.00
2022-11-22T01:12:20.698Z,7.20
2022-11-22T01:13:20.647Z,8.80
2022-11-22T01:14:20.597Z,6.00
2022-11-22T01:15:20.556Z,7.10
2022-11-22T01:16:20.511Z,8.50
2022-11-22T01:17:20.467Z,7.00
2022-11-22T01:18:20.440Z,5.70
2022-11-22T01:19:20.380Z,6.80
2022-11-22T01:20:20.334Z,7.40
2022-11-22T01:21:20.301Z,6.90
2022-11-22T01:22:20.247Z,9.00
2022-11-22T01:23:20.212Z,7.80
2022-11-22T01:24:20.174Z,7.20
2022-11-22T01:25:20.124Z,7.90
2022-11-22T01:26:20.075Z,7.90
2022-11-22T01:27:20.039Z,7.60
2022-11-22T01:28:19.989Z,5.40
2022-11-22T01:29:19.958Z,7.70
2022-11-22T01:30:19.900Z,6.80
2022-11-22T01:31:19.860Z,6.30
2022-11-22T01:32:19.813Z,6.90
2022-11-22T01:33:19.775Z,7.40
2022-11-22T01:34:19.727Z,8.70
2022-11-22T01:35:19.698Z,6.10
2022-11-22T01:36:19.641Z,7.00
2022-11-22T01:37:19.610Z,7.40
2022-11-22T01:38:19.552Z,7.90
2022-11-22T01:39:19.517Z,7.00
2022-11-22T01:40:19.466Z,6.10
2022-11-22T01:41:19.427Z,6.90
2022-11-22T01:42:19.388Z,7.40
2022-11-22T01:43:19.356Z,9.40
2022-11-22T01:44:19.311Z,7.20
2022-11-22T01:45:19.251Z,5.50
2022-11-22T01:46:19.207Z,8.80
2022-11-22T01:47:19.170Z,5.70
2022-11-22T01:48:19.127Z,5.90
2022-11-22T01:49:19.089Z,6.90
2022-11-22T01:50:19.036Z,7.50
2022-11-22T01:51:18.992Z,7.70
2022-11-22T01:52:18.945Z,6.70
2022-11-22T01:53:18.907Z,6.90
2022-11-22T01:54:18.869Z,6.60
2022-11-22T01:55:18.817Z,9.30
2022-11-22T01:56:18.771Z,7.80
2022-11-22T01:57:18.730Z,6.60
2022-11-22T01:58:18.686Z,10.10
2022-11-22T01:59:18.647Z,9.70
2022-11-22T02:00:18.608Z,7.80
2022-11-22T02:01:18.665Z,8.10
2022-11-22T02:02:18.539Z,7.20
2022-11-22T02:03:18.502Z,6.80
2022-11-22T02:04:18.432Z,8.20
2022-11-22T02:05:18.384Z,7.00
2022-11-22T02:06:18.365Z,6.80
2022-11-22T02:07:18.357Z,7.50
2022-11-22T02:08:18.331Z,5.80
2022-11-22T02:09:18.215Z,7.30
2022-11-22T02:10:18.168Z,7.60
2022-11-22T02:11:18.126Z,7.50
2022-11-22T02:12:18.092Z,6.60
2022-11-22T02:13:18.057Z,7.60
2022-11-22T02:14:17.994Z,10.10
2022-11-22T02:15:17.962Z,6.90
2022-11-22T02:16:17.907Z,7.40
2022-11-22T02:17:17.867Z,8.30
2022-11-22T02:18:17.832Z,6.90
2022-11-22T02:19:17.780Z,7.50
2022-11-22T02:20:17.733Z,7.20
2022-11-22T02:21:17.693Z,7.70
2022-11-22T02:22:17.652Z,6.40
2022-11-22T02:23:17.628Z,8.30
2022-11-22T02:24:17.562Z,6.30
2022-11-22T02:25:17.538Z,8.50
2022-11-22T02:26:17.479Z,9.10
2022-11-22T02:27:17.432Z,6.60
2022-11-22T02:28:17.394Z,7.40
2022-11-22T02:29:17.361Z,9.10
2022-11-22T02:30:17.887Z,10.20
2022-11-22T02:31:17.266Z,9.20
2022-11-22T02:32:17.220Z,7.00
2022-11-22T02:33:17.187Z,7.20
2022-11-22T02:34:17.135Z,8.90
2022-11-22T02:35:17.112Z,7.90
2022-11-22T02:36:17.054Z,8.90
2022-11-22T02:37:17.004Z,7.40
2022-11-22T02:38:16.973Z,7.20
2022-11-22T02:39:16.917Z,7.40
2022-11-22T02:40:16.875Z,7.10
2022-11-22T02:41:16.880Z,10.50
2022-11-22T02:42:16.786Z,9.60
2022-11-22T02:43:16.759Z,8.00
2022-11-22T02:44:16.696Z,6.90
2022-11-22T02:45:16.655Z,7.10
2022-11-22T02:46:16.611Z,6.40
2022-11-22T02:47:16.569Z,8.10
2022-11-22T02:48:16.522Z,7.80
2022-11-22T02:49:16.500Z,7.90
2022-11-22T02:50:16.443Z,8.80
2022-11-22T02:51:16.398Z,7.70
2022-11-22T02:52:16.353Z,7.00
2022-11-22T02:53:16.316Z,8.50
2022-11-22T02:54:16.268Z,7.10
2022-11-22T02:55:16.238Z,6.20
2022-11-22T02:56:16.189Z,9.40
2022-11-22T02:57:16.138Z,8.40
2022-11-22T02:58:16.092Z,8.70
2022-11-22T02:59:16.053Z,6.70
2022-11-22T03:00:16.004Z,6.10
2022-11-22T03:01:16.000Z,7.00
2022-11-22T03:02:15.952Z,7.20
2022-11-22T03:03:15.878Z,6.20
2022-11-22T03:04:15.832Z,7.60
2022-11-22T03:05:15.798Z,7.00
2022-11-22T03:06:16.410Z,8.60
2022-11-22T03:07:15.746Z,8.10
2022-11-22T03:08:15.668Z,8.10
2022-11-22T03:09:15.633Z,7.20
2022-11-22T03:10:15.574Z,8.70
2022-11-22T03:11:15.535Z,7.00
2022-11-22T03:12:15.484Z,8.30
2022-11-22T03:13:15.449Z,9.30
2022-11-22T03:14:16.324Z,7.00
2022-11-22T03:15:15.372Z,8.60
2022-11-22T03:16:15.312Z,9.50
2022-11-22T03:17:15.284Z,6.60
2022-11-22T03:18:15.226Z,8.20
2022-11-22T03:19:15.192Z,8.10
2022-11-22T03:20:15.135Z,7.70
2022-11-22T03:21:15.097Z,9.90
2022-11-22T03:22:15.150Z,7.90
2022-11-22T03:23:15.023Z,8.00
2022-11-22T03:24:14.969Z,8.00
2022-11-22T03:25:14.925Z,8.50
2022-11-22T03:26:14.878Z,7.50
2022-11-22T03:27:14.842Z,11.30
2022-11-22T03:28:14.802Z,9.50
2022-11-22T03:29:14.751Z,7.60
2022-11-22T03:30:14.704Z,8.00
2022-11-22T03:31:14.663Z,6.40
2022-11-22T03:32:14.617Z,7.40
2022-11-22T03:33:14.579Z,8.80
2022-11-22T03:34:14.544Z,10.30
2022-11-22T03:35:14.549Z,9.90
2022-11-22T03:36:14.444Z,8.20
2022-11-22T03:37:14.404Z,6.10
2022-11-22T03:38:14.356Z,7.30
2022-11-22T03:39:14.317Z,6.50
2022-11-22T03:40:14.276Z,7.90
2022-11-22T03:41:14.229Z,9.40
2022-11-22T03:42:19.759Z,10.10
2022-11-22T03:43:14.140Z,9.70
2022-11-22T03:44:14.092Z,7.10
2022-11-22T03:45:14.053Z,9.90
2022-11-22T03:46:14.020Z,7.70
2022-11-22T03:47:13.964Z,8.30
2022-11-22T03:48:13.920Z,7.90
2022-11-22T03:49:13.879Z,9.60
2022-11-22T03:50:13.832Z,8.00
2022-11-22T03:51:13.802Z,9.70
2022-11-22T03:52:13.757Z,13.00
2022-11-22T03:53:13.710Z,7.50
2022-11-22T03:54:13.655Z,9.50
2022-11-22T03:55:13.615Z,11.20
2022-11-22T03:56:13.566Z,8.80
2022-11-22T03:57:13.544Z,12.10
2022-11-22T03:58:13.482Z,9.00
2022-11-22T03:59:13.451Z,8.40
2022-11-22T04:00:13.403Z,11.00
2022-11-22T04:01:16.537Z,10.50
2022-11-22T04:02:13.345Z,10.50
2022-11-22T04:03:13.277Z,10.10
2022-11-22T04:04:13.217Z,10.20
2022-11-22T04:05:13.175Z,12.50
2022-11-22T04:06:13.134Z,9.90
2022-11-22T04:07:13.143Z,11.60
2022-11-22T04:08:13.050Z,6.60
2022-11-22T04:09:13.085Z,10.80
2022-11-22T04:10:14.431Z,8.60
2022-11-22T04:11:12.916Z,9.30
2022-11-22T04:12:12.873Z,12.10
2022-11-22T04:13:12.834Z,9.20
2022-11-22T04:14:12.809Z,10.30
2022-11-22T04:15:12.741Z,10.20
2022-11-22T04:16:12.694Z,11.40
2022-11-22T04:17:12.650Z,8.50
2022-11-22T04:18:12.634Z,12.80
2022-11-22T04:19:12.563Z,11.60
2022-11-22T04:20:12.535Z,9.50
2022-11-22T04:21:12.478Z,11.10
2022-11-22T04:22:12.436Z,9.10
2022-11-22T04:23:12.402Z,10.40
2022-11-22T04:24:12.346Z,10.80
2022-11-22T04:25:12.302Z,11.00
2022-11-22T04:26:12.264Z,10.70
2022-11-22T04:27:12.215Z,9.30
2022-11-22T04:28:12.172Z,8.60
2022-11-22T04:29:12.147Z,7.40
2022-11-22T04:30:14.852Z,9.50
2022-11-22T04:31:12.038Z,9.90
2022-11-22T04:32:12.008Z,12.10
2022-11-22T04:33:11.953Z,8.20
2022-11-22T04:34:11.923Z,10.80
2022-11-22T04:35:11.866Z,8.30
2022-11-22T04:36:13.477Z,12.80
2022-11-22T04:37:11.776Z,10.90
2022-11-22T04:38:11.745Z,11.00
2022-11-22T04:39:11.686Z,10.80
2022-11-22T04:40:11.658Z,9.10
2022-11-22T04:41:11.600Z,8.30
2022-11-22T04:42:11.564Z,9.20
2022-11-22T04:43:11.517Z,10.30
2022-11-22T04:44:11.481Z,8.20
2022-11-22T04:45:11.440Z,12.30
2022-11-22T04:46:11.397Z,10.50
2022-11-22T04:47:11.340Z,9.20
2022-11-22T04:48:11.305Z,9.70
2022-11-22T04:49:11.252Z,9.80
2022-11-22T04:50:11.222Z,8.50
2022-11-22T04:51:11.185Z,9.30
2022-11-22T04:52:11.156Z,9.30
2022-11-22T04:53:11.079Z,9.00
2022-11-22T04:54:11.041Z,8.20
2022-11-22T04:55:11.010Z,8.20
2022-11-22T04:56:10.967Z,6.80
2022-11-22T04:57:10.903Z,9.50
2022-11-22T04:58:10.863Z,7.90
2022-11-22T04:59:10.816Z,8.80
2022-11-22T05:00:10.773Z,9.50
2022-11-22T05:01:10.830Z,7.80
2022-11-22T05:02:10.700Z,7.90
2022-11-22T05:03:10.641Z,8.90
2022-11-22T05:04:10.598Z,8.00
2022-11-22T05:05:10.553Z,7.70
2022-11-22T05:06:10.517Z,8.30
2022-11-22T05:07:10.520Z,11.20
2022-11-22T05:08:10.439Z,9.40
2022-11-22T05:09:10.377Z,7.90
2022-11-22T05:10:10.367Z,8.70
2022-11-22T05:11:10.292Z,8.40
2022-11-22T05:12:10.249Z,10.10
2022-11-22T05:13:10.221Z,10.70
2022-11-22T05:14:10.160Z,8.50
2022-11-22T05:15:10.114Z,9.50
2022-11-22T05:16:10.115Z,9.10
2022-11-22T05:17:13.148Z,11.40
2022-11-22T05:18:09.986Z,7.00
2022-11-22T05:19:09.939Z,9.70
2022-11-22T05:20:09.904Z,10.60
2022-11-22T05:21:09.855Z,12.20
2022-11-22T05:22:09.842Z,10.20
2022-11-22T05:23:09.768Z,9.50
2022-11-22T05:24:09.733Z,9.10
2022-11-22T05:25:09.683Z,9.70
2022-11-22T05:26:09.635Z,11.80
2022-11-22T05:27:09.589Z,9.70
2022-11-22T05:28:09.548Z,8.70
2022-11-22T05:29:09.511Z,9.50
2022-11-22T05:30:09.463Z,10.80
2022-11-22T05:31:09.415Z,9.50
2022-11-22T05:32:09.374Z,9.10
2022-11-22T05:33:09.325Z,11.20
2022-11-22T05:34:09.316Z,10.40
2022-11-22T05:35:09.236Z,9.80
2022-11-22T05:36:09.198Z,7.90
2022-11-22T05:37:09.147Z,10.20
2022-11-22T05:38:09.114Z,10.40
2022-11-22T05:39:09.062Z,9.50
2022-11-22T05:40:09.031Z,9.20
2022-11-22T05:41:08.969Z,8.40
2022-11-22T05:42:08.930Z,12.10
2022-11-22T05:43:08.894Z,11.00
2022-11-22T05:44:08.843Z,10.20
2022-11-22T05:45:08.797Z,9.90
2022-11-22T05:46:08.776Z,12.10
2022-11-22T05:47:08.709Z,7.20
2022-11-22T05:48:08.672Z,11.70
2022-11-22T05:49:08.620Z,8.70
2022-11-22T05:50:08.580Z,12.40
2022-11-22T05:51:08.535Z,11.10
2022-11-22T05:52:08.501Z,9.90
2022-11-22T05:53:08.445Z,12.40
2022-11-22T05:54:08.408Z,9.80
2022-11-22T05:55:08.359Z,12.00
2022-11-22T05:56:08.320Z,9.10
2022-11-22T05:57:08.273Z,10.60
2022-11-22T05:58:08.244Z,10.70
2022-11-22T05:59:08.183Z,9.60
2022-11-22T06:00:08.144Z,12.10
2022-11-22T06:01:08.097Z,10.80
2022-11-22T06:02:08.106Z,8.20
2022-11-22T06:03:08.010Z,9.90
2022-11-22T06:04:07.985Z,11.70
2022-11-22T06:05:07.930Z,10.30
2022-11-22T06:06:07.881Z,10.60
2022-11-22T06:07:10.284Z,10.30
2022-11-22T06:08:07.791Z,8.90
2022-11-22T06:09:07.751Z,9.00
2022-11-22T06:10:07.721Z,10.60
2022-11-22T06:11:07.661Z,10.80
2022-11-22T06:12:07.619Z,10.60
2022-11-22T06:13:07.570Z,11.30
2022-11-22T06:14:07.531Z,10.50
2022-11-22T06:15:07.482Z,10.60
2022-11-22T06:16:07.458Z,13.30
2022-11-22T06:17:07.410Z,13.00
2022-11-22T06:18:07.357Z,9.40
2022-11-22T06:19:07.309Z,13.90
2022-11-22T06:20:07.263Z,11.80
2022-11-22T06:21:07.218Z,9.70
2022-11-22T06:22:07.180Z,8.90
2022-11-22T06:23:07.160Z,10.10
2022-11-22T06:24:07.086Z,15.20
2022-11-22T06:25:07.044Z,11.40
2022-11-22T06:26:07.002Z,11.80
2022-11-22T06:27:06.953Z,11.70
2022-11-22T06:28:06.923Z,9.10
2022-11-22T06:29:06.881Z,10.90
2022-11-22T06:30:06.832Z,11.70
2022-11-22T06:31:06.794Z,12.00
2022-11-22T06:32:06.738Z,11.50
2022-11-22T06:33:06.704Z,11.70
2022-11-22T06:34:06.659Z,13.20
2022-11-22T06:35:06.615Z,12.20
2022-11-22T06:36:06.563Z,10.90
2022-11-22T06:37:06.517Z,14.30
2022-11-22T06:38:06.477Z,13.40
2022-11-22T06:39:06.433Z,14.30
2022-11-22T06:40:06.383Z,12.40
2022-11-22T06:41:06.348Z,14.60
2022-11-22T06:42:06.301Z,12.20
2022-11-22T06:43:06.283Z,12.50
2022-11-22T06:44:06.217Z,12.20
2022-11-22T06:45:06.186Z,12.60
2022-11-22T06:46:06.135Z,10.60
2022-11-22T06:47:06.094Z,11.00
2022-11-22T06:48:06.032Z,10.60
2022-11-22T06:49:05.989Z,14.70
2022-11-22T06:50:05.942Z,11.40
2022-11-22T06:51:05.910Z,10.00
2022-11-22T06:52:05.858Z,9.70
2022-11-22T06:53:05.809Z,11.80
2022-11-22T06:54:05.775Z,13.70
2022-11-22T06:55:08.065Z,10.00
2022-11-22T06:56:05.680Z,10.70
2022-11-22T06:57:05.645Z,11.40
2022-11-22T06:58:05.594Z,10.50
2022-11-22T06:59:05.554Z,12.50
2022-11-22T07:00:05.511Z,12.00
2022-11-22T07:01:05.463Z,12.10
2022-11-22T07:02:06.864Z,10.20
2022-11-22T07:03:05.367Z,12.10
2022-11-22T07:04:05.327Z,12.00
2022-11-22T07:05:26.787Z,12.50
2022-11-22T07:06:05.234Z,12.70
2022-11-22T07:07:05.211Z,10.70
2022-11-22T07:08:12.012Z,10.40
2022-11-22T07:09:05.101Z,10.40
2022-11-22T07:10:05.084Z,11.30
2022-11-22T07:11:05.014Z,11.90
2022-11-22T07:12:04.975Z,12.10
2022-11-22T07:13:04.925Z,11.10
2022-11-22T07:14:08.306Z,11.20
2022-11-22T07:15:04.837Z,12.50
2022-11-22T07:16:04.809Z,11.70
2022-11-22T07:17:04.749Z,10.80
2022-11-22T07:18:04.709Z,11.60
2022-11-22T07:19:04.675Z,10.90
2022-11-22T07:20:04.622Z,12.60
2022-11-22T07:21:09.408Z,11.90
2022-11-22T07:22:04.529Z,10.10
2022-11-22T07:23:04.538Z,13.50
2022-11-22T07:24:04.457Z,9.10
2022-11-22T07:25:04.402Z,11.00
2022-11-22T07:26:04.359Z,12.40
2022-11-22T07:27:04.318Z,11.40
2022-11-22T07:28:04.269Z,13.60
2022-11-22T07:29:04.232Z,12.50
2022-11-22T07:30:04.189Z,10.20
2022-11-22T07:31:04.135Z,10.40
2022-11-22T07:32:04.100Z,11.60
2022-11-22T07:33:04.042Z,10.40
2022-11-22T07:34:04.004Z,12.30
2022-11-22T07:35:03.960Z,11.00
2022-11-22T07:36:03.932Z,14.60
2022-11-22T07:37:08.918Z,12.10
2022-11-22T07:38:03.832Z,14.80
2022-11-22T07:39:03.794Z,11.10
2022-11-22T07:40:03.761Z,10.80
2022-11-22T07:41:03.700Z,11.50
2022-11-22T07:42:03.679Z,12.10
2022-11-22T07:43:03.604Z,12.10
2022-11-22T07:44:03.563Z,13.30
2022-11-22T07:45:03.529Z,10.50
2022-11-22T07:46:03.481Z,10.10
2022-11-22T07:47:03.442Z,11.60
2022-11-22T07:48:03.401Z,12.10
2022-11-22T07:49:03.342Z,12.30
2022-11-22T07:50:03.315Z,12.10
2022-11-22T07:51:03.252Z,10.70
2022-11-22T07:52:03.218Z,10.20
2022-11-22T07:53:03.164Z,12.70
2022-11-22T07:54:03.131Z,11.80
2022-11-22T07:55:03.093Z,10.40
2022-11-22T07:56:03.052Z,11.60
2022-11-22T07:57:02.990Z,10.90
2022-11-22T07:58:02.968Z,10.50
2022-11-22T07:59:02.914Z,11.60
2022-11-22T08:00:02.866Z,10.80
2022-11-22T08:01:02.948Z,12.00
2022-11-22T08:02:02.913Z,12.60
2022-11-22T08:03:02.748Z,11.60
2022-11-22T08:04:02.719Z,9.70
2022-11-22T08:05:02.649Z,8.90
2022-11-22T08:06:02.711Z,7.50
2022-11-22T08:07:02.605Z,10.90
2022-11-22T08:08:02.531Z,9.50
2022-11-22T08:09:02.625Z,9.10
2022-11-22T08:10:02.451Z,11.30
2022-11-22T08:11:02.388Z,8.90
2022-11-22T08:12:02.384Z,10.30
2022-11-22T08:13:02.320Z,7.60
2022-11-22T08:14:02.266Z,10.90
2022-11-22T08:15:02.224Z,12.60
2022-11-22T08:16:05.028Z,9.80
2022-11-22T08:17:02.135Z,11.80
2022-11-22T08:18:02.113Z,8.40
2022-11-22T08:19:02.054Z,10.50
2022-11-22T08:20:02.012Z,10.70
2022-11-22T08:21:01.981Z,9.60
2022-11-22T08:22:02.004Z,10.30
2022-11-22T08:23:01.907Z,10.40
2022-11-22T08:24:01.843Z,10.30
2022-11-22T08:25:01.800Z,9.60
2022-11-22T08:26:01.769Z,8.00
2022-11-22T08:27:01.722Z,8.90
2022-11-22T08:28:01.675Z,7.00
2022-11-22T08:29:01.637Z,8.40
2022-11-22T08:30:01.592Z,8.40
2022-11-22T08:31:01.573Z,9.30
2022-11-22T08:32:01.510Z,11.40
2022-11-22T08:33:01.470Z,8.70
2022-11-22T08:34:01.434Z,8.40
2022-11-22T08:35:01.391Z,8.30
2022-11-22T08:36:01.359Z,7.70
2022-11-22T08:37:01.306Z,9.50
2022-11-22T08:38:01.341Z,8.60
2022-11-22T08:39:01.231Z,9.50
2022-11-22T08:40:01.184Z,8.30
2022-11-22T08:41:01.147Z,9.20
2022-11-22T08:42:01.124Z,7.10
2022-11-22T08:43:01.064Z,9.40
2022-11-22T08:44:01.023Z,8.60
2022-11-22T08:45:00.983Z,8.50
2022-11-22T08:46:00.944Z,8.80
2022-11-22T08:47:00.905Z,8.50
2022-11-22T08:48:00.882Z,6.60
2022-11-22T08:49:00.823Z,8.90
2022-11-22T08:50:00.779Z,11.30
2022-11-22T08:51:00.745Z,7.30
2022-11-22T08:52:00.700Z,7.30
2022-11-22T08:53:00.666Z,8.00
2022-11-22T08:54:00.716Z,10.20
2022-11-22T08:55:00.590Z,6.90
2022-11-22T08:56:00.540Z,8.00
2022-11-22T08:57:00.502Z,9.40
2022-11-22T08:58:00.459Z,8.40
2022-11-22T08:59:00.455Z,8.00
2022-11-22T09:00:00.392Z,9.00
2022-11-22T09:01:00.364Z,8.40
2022-11-22T09:02:00.401Z,6.10
2022-11-22T09:03:00.263Z,10.60
2022-11-22T09:04:00.219Z,8.90
2022-11-22T09:05:00.202Z,10.50
2022-11-22T09:09:30.086Z,6.20
2022-11-22T09:10:00.054Z,7.70
2022-11-22T09:10:59.949Z,9.00
2022-11-22T09:11:59.911Z,6.60
2022-11-22T09:12:59.858Z,7.80
2022-11-22T09:13:59.816Z,8.50
2022-11-22T09:14:59.778Z,7.60
2022-11-22T09:15:59.734Z,8.80
2022-11-22T09:16:59.698Z,6.80
2022-11-22T09:17:59.665Z,7.40
2022-11-22T09:18:59.617Z,6.30
2022-11-22T09:19:59.575Z,8.40
2022-11-22T09:20:59.540Z,7.30
2022-11-22T09:21:59.499Z,7.40
2022-11-22T09:22:59.460Z,7.70
2022-11-22T09:23:59.466Z,8.30
2022-11-22T09:24:59.384Z,8.20
2022-11-22T09:25:59.414Z,8.80
2022-11-22T09:26:59.305Z,5.50
2022-11-22T09:27:59.264Z,7.20
2022-11-22T09:28:59.223Z,7.60
2022-11-22T09:29:59.199Z,9.30
2022-11-22T09:30:59.147Z,5.10
2022-11-22T09:31:59.108Z,9.70
2022-11-22T09:32:59.069Z,6.50
2022-11-22T09:33:59.029Z,5.60
2022-11-22T09:34:58.993Z,7.90
2022-11-22T09:35:58.963Z,5.70
2022-11-22T09:36:58.916Z,6.90
2022-11-22T09:37:58.873Z,5.80
2022-11-22T09:38:58.836Z,6.00
2022-11-22T09:39:58.819Z,6.10
2022-11-22T09:40:58.759Z,6.10
2022-11-22T09:41:58.815Z,6.20
2022-11-22T09:42:58.691Z,5.70
2022-11-22T09:43:58.646Z,9.90
2022-11-22T09:44:58.606Z,7.40
2022-11-22T09:45:58.577Z,6.70
2022-11-22T09:46:58.546Z,6.10
2022-11-22T09:47:58.487Z,8.40
2022-11-22T09:48:58.466Z,6.70
2022-11-22T09:49:58.413Z,6.80
2022-11-22T09:50:58.374Z,4.70
2022-11-22T09:51:58.342Z,6.20
2022-11-22T09:52:58.303Z,6.10
2022-11-22T09:53:58.259Z,8.60
2022-11-22T09:54:58.224Z,7.10
2022-11-22T09:55:58.187Z,6.10
2022-11-22T09:56:58.145Z,6.90
2022-11-22T09:57:58.197Z,7.20
2022-11-22T09:58:58.069Z,7.20
2022-11-22T09:59:58.028Z,6.90
2022-11-22T10:00:58.016Z,7.00
2022-11-22T10:02:03.446Z,7.00
2022-11-22T10:03:01.155Z,5.50
2022-11-22T10:03:57.891Z,7.70
2022-11-22T10:04:57.848Z,6.40
2022-11-22T10:05:57.798Z,6.50
2022-11-22T10:06:57.764Z,5.60
2022-11-22T10:07:57.851Z,7.20
2022-11-22T10:08:57.680Z,7.70
2022-11-22T10:09:57.637Z,6.40
2022-11-22T10:10:57.627Z,7.10
2022-11-22T10:11:57.560Z,5.10
2022-11-22T10:12:57.523Z,5.90
2022-11-22T10:13:57.563Z,9.00
2022-11-22T10:14:58.436Z,7.00
2022-11-22T10:15:57.403Z,7.90
2022-11-22T10:16:57.380Z,5.70
2022-11-22T10:17:57.323Z,7.50
2022-11-22T10:18:57.317Z,6.60
2022-11-22T10:19:57.251Z,5.80
2022-11-22T10:20:57.219Z,8.60
2022-11-22T10:21:57.171Z,8.60
2022-11-22T10:22:57.161Z,6.30
2022-11-22T10:23:57.088Z,5.80
2022-11-22T10:24:57.054Z,8.30
2022-11-22T10:25:57.016Z,7.50
2022-11-22T10:26:56.984Z,7.40
2022-11-22T10:28:00.562Z,7.00
2022-11-22T10:28:56.896Z,6.60
2022-11-22T10:29:56.949Z,6.30
2022-11-22T10:30:56.823Z,6.70
2022-11-22T10:31:56.774Z,5.20
2022-11-22T10:32:56.737Z,5.40
2022-11-22T10:33:56.695Z,9.20
2022-11-22T10:34:56.658Z,6.30
2022-11-22T10:35:56.610Z,5.00
2022-11-22T10:36:56.585Z,7.20
2022-11-22T10:37:56.530Z,6.30
2022-11-22T10:38:56.526Z,8.60
2022-11-22T10:39:56.447Z,5.10
2022-11-22T10:40:56.410Z,5.60
2022-11-22T10:41:56.372Z,5.80
2022-11-22T10:42:56.341Z,5.20
2022-11-22T10:43:56.281Z,5.20
2022-11-22T10:44:56.245Z,4.90
2022-11-22T10:45:56.287Z,6.10
2022-11-22T10:46:57.148Z,5.20
2022-11-22T10:47:56.117Z,5.50
2022-11-22T10:48:56.087Z,5.00
2022-11-22T10:49:56.039Z,6.10
2022-11-22T10:50:55.997Z,5.40
2022-11-22T10:51:55.954Z,3.30
2022-11-22T10:52:55.915Z,5.50
2022-11-22T10:54:01.942Z,5.40
2022-11-22T10:54:55.834Z,4.30
2022-11-22T10:55:55.787Z,5.10
2022-11-22T10:56:55.760Z,4.40
2022-11-22T10:57:55.707Z,4.40
2022-11-22T10:58:55.670Z,4.10
2022-11-22T10:59:55.627Z,4.60
2022-11-22T11:00:55.715Z,4.70
2022-11-22T11:01:55.628Z,5.40
2022-11-22T11:02:55.537Z,4.60
2022-11-22T11:03:55.460Z,3.90
2022-11-22T11:04:55.424Z,3.10
2022-11-22T11:07:12.426Z,4.40
2022-11-22T11:08:04.182Z,4.70
2022-11-22T11:09:47.969Z,4.10
2022-11-22T11:10:12.802Z,4.40
2022-11-22T11:10:55.177Z,3.60
2022-11-22T11:11:55.141Z,3.20
2022-11-22T11:12:55.099Z,3.60
2022-11-22T11:13:55.061Z,3.90
2022-11-22T11:14:55.049Z,5.70
2022-11-22T11:15:56.430Z,4.00
2022-11-22T11:16:54.932Z,4.80
2022-11-22T11:17:54.967Z,4.20
2022-11-22T11:18:54.851Z,4.20
2022-11-22T11:19:54.806Z,3.90
2022-11-22T11:20:54.767Z,5.50
2022-11-22T11:21:54.740Z,3.30
2022-11-22T11:23:54.642Z,4.30
2022-11-22T11:24:54.604Z,5.10
2022-11-22T11:25:54.560Z,2.10
2022-11-22T11:26:54.524Z,4.50
2022-11-22T11:27:54.490Z,4.60
2022-11-22T11:28:54.440Z,4.30
2022-11-22T11:29:54.397Z,3.90
2022-11-22T11:30:54.359Z,3.10
2022-11-22T11:31:54.316Z,4.30
2022-11-22T11:32:54.295Z,4.80
2022-11-22T11:33:54.332Z,4.40
2022-11-22T11:34:54.200Z,3.60
2022-11-22T11:35:54.151Z,3.20
2022-11-22T11:36:54.111Z,2.90
2022-11-22T11:37:54.075Z,3.00
2022-11-22T11:38:54.048Z,3.50
2022-11-22T11:39:53.988Z,3.50
2022-11-22T11:40:53.959Z,4.50
2022-11-22T11:41:53.905Z,5.30
2022-11-22T11:42:53.868Z,3.90
2022-11-22T11:43:53.840Z,3.50
2022-11-22T11:44:53.786Z,3.40
2022-11-22T11:45:53.745Z,4.20
2022-11-22T11:46:53.706Z,3.50
2022-11-22T11:47:53.656Z,3.40
2022-11-22T11:48:53.619Z,4.90
2022-11-22T11:49:53.687Z,2.80
2022-11-22T11:50:53.540Z,4.10
2022-11-22T11:51:53.493Z,2.50
2022-11-22T11:52:53.453Z,2.40
2022-11-22T11:53:53.411Z,3.30
2022-11-22T11:54:53.372Z,3.50
2022-11-22T11:55:53.352Z,2.80
2022-11-22T11:56:53.301Z,3.80
2022-11-22T11:57:53.258Z,4.50
2022-11-22T11:58:53.230Z,2.60
2022-11-22T11:59:53.160Z,3.60
2022-11-22T12:00:53.139Z,3.10
2022-11-22T12:01:53.146Z,2.90
2022-11-22T12:02:53.085Z,3.60
2022-11-22T12:03:53.001Z,1.50
2022-11-22T12:04:52.958Z,3.00
2022-11-22T12:05:52.999Z,1.90
2022-11-22T12:06:52.878Z,2.20
2022-11-22T12:07:52.941Z,3.10
2022-11-22T12:08:52.816Z,2.60
2022-11-22T12:09:52.750Z,2.20
2022-11-22T12:10:52.737Z,3.10
2022-11-22T12:11:52.669Z,2.40
2022-11-22T12:12:52.628Z,3.00
2022-11-22T12:15:10.113Z,3.60
2022-11-22T12:15:52.519Z,3.00
2022-11-22T12:16:52.483Z,3.40
2022-11-22T12:17:52.423Z,3.40
2022-11-22T12:18:52.389Z,3.40
2022-11-22T12:19:52.342Z,1.70
2022-11-22T12:20:52.301Z,3.20
2022-11-22T12:21:52.355Z,2.30
2022-11-22T12:22:52.218Z,2.70
2022-11-22T12:23:52.210Z,2.00
2022-11-22T12:25:16.489Z,3.40
2022-11-22T12:25:52.092Z,2.50
2022-11-22T12:26:52.054Z,2.40
2022-11-22T12:27:52.007Z,3.40
2022-11-22T12:28:51.986Z,2.50
2022-11-22T12:29:51.929Z,3.90
2022-11-22T12:30:51.890Z,2.70
2022-11-22T12:31:51.851Z,3.30
2022-11-22T12:32:51.814Z,1.90
2022-11-22T12:33:51.805Z,1.80
2022-11-22T12:34:51.744Z,1.70
2022-11-22T12:35:51.679Z,1.30
2022-11-22T12:36:51.656Z,2.90
2022-11-22T12:37:51.677Z,3.90
2022-11-22T12:38:51.573Z,2.00
2022-11-22T12:39:51.516Z,2.40
2022-11-22T12:40:51.483Z,2.20
2022-11-22T12:41:51.436Z,2.30
2022-11-22T12:42:51.391Z,2.40
2022-11-22T12:43:51.356Z,2.70
2022-11-22T12:44:51.310Z,2.00
2022-11-22T12:45:51.276Z,2.30
2022-11-22T12:46:51.239Z,2.20
2022-11-22T12:47:51.203Z,2.30
2022-11-22T12:48:51.142Z,2.20
2022-11-22T12:49:51.104Z,2.60
2022-11-22T12:50:51.063Z,2.80
2022-11-22T12:51:51.025Z,1.60
2022-11-22T12:52:50.979Z,2.00
2022-11-22T12:53:51.029Z,2.50
2022-11-22T12:54:50.893Z,3.00
2022-11-22T12:55:50.852Z,2.50
2022-11-22T12:56:50.817Z,2.80
2022-11-22T12:57:50.777Z,1.40
2022-11-22T12:58:50.730Z,1.70
2022-11-22T12:59:50.706Z,1.70
2022-11-22T13:00:50.648Z,2.30
2022-11-22T13:01:50.686Z,1.40
2022-11-22T13:02:55.901Z,3.50
2022-11-22T13:03:50.535Z,2.60
2022-11-22T13:04:50.483Z,2.00
2022-11-22T13:05:50.454Z,2.30
2022-11-22T13:06:50.403Z,1.40
2022-11-22T13:07:50.420Z,1.40
2022-11-22T13:08:54.635Z,3.10
2022-11-22T13:09:50.365Z,2.10
2022-11-22T13:10:59.114Z,2.00
2022-11-22T13:11:50.198Z,2.30
2022-11-22T13:12:50.151Z,1.60
2022-11-22T13:13:50.120Z,3.50
2022-11-22T13:14:50.070Z,1.60
2022-11-22T13:15:50.037Z,1.50
2022-11-22T13:16:50.003Z,3.30
2022-11-22T13:17:49.954Z,1.50